Oceanis — SVBC9 — position and weather

sailwx.info

Track history (hours):
 
Tides and Currents Weather Stations Pressure Air Temp Water Temp Dewpoint Dewpoint Depression Visibility Wind Speed Wind Dir Waves Ship Positions

Oceanis

Last reported at 2017-Sep-16 07:54 UTC. Time now 2017-Nov-20 21:28 UTC.
Position N 01°20' E 103°18'.
Warning: this ship's position is months out of date.

Length 330 m; draft 11.1 m.

Type: Tanker. MMSI: 241089000.

Date/timePositionNaut miles runAvg speedWind from/ knotsBaromVisibWave heightAir tempDewpointWater temp
2017-Sep-16 07:54N 01°20' E 103°18'615.8
2017-Sep-16 07:30N 01°16' E 103°23'815.6
2017-Sep-16 07:00N 01°13' E 103°30'714.7
2017-Sep-16 06:30N 01°11' E 103°38'612.6
2017-Sep-16 06:00N 01°09' E 103°43'713.5
2017-Sep-16 05:30N 01°11' E 103°49'611.7
2017-Sep-16 05:00N 01°13' E 103°55'612.5
2017-Sep-16 04:30N 01°16' E 104°01'4 7.1
2017-Sep-16 04:00N 01°18' E 104°03'1 0.0
2017-Sep-15 02:10N 01°18' E 104°04'0 0.3
2017-Sep-15 01:58N 01°18' E 104°04'2 3.0
2017-Sep-15 01:27N 01°17' E 104°05'3 4.8
2017-Sep-15 00:52N 01°17' E 104°08'1 1.6
2017-Sep-15 00:30N 01°17' E 104°08'6 4.7
2017-Sep-14 23:09N 01°18' E 104°15'  
Track history (hours):
 
Tides and Currents Weather Stations Pressure Air Temp Water Temp Dewpoint Dewpoint Depression Visibility Wind Speed Wind Dir Waves Ship Positions

Oceanis

Last reported at 2017-Sep-16 07:54 UTC. Time now 2017-Nov-20 21:28 UTC.
Position N 01°20' E 103°18'.
Warning: this ship's position is months out of date.

Length 330 m; draft 11.1 m.

Type: Tanker. MMSI: 241089000.

Date/timePositionNaut miles runAvg speedWind from/ knotsBaromVisibWave heightAir tempDewpointWater temp
2017-Sep-16 07:54N 01°20' E 103°18'615.8
2017-Sep-16 07:30N 01°16' E 103°23'815.6
2017-Sep-16 07:00N 01°13' E 103°30'714.7
2017-Sep-16 06:30N 01°11' E 103°38'612.6
2017-Sep-16 06:00N 01°09' E 103°43'713.5
2017-Sep-16 05:30N 01°11' E 103°49'611.7
2017-Sep-16 05:00N 01°13' E 103°55'612.5
2017-Sep-16 04:30N 01°16' E 104°01'4 7.1
2017-Sep-16 04:00N 01°18' E 104°03'1 0.0
2017-Sep-15 02:10N 01°18' E 104°04'0 0.3
2017-Sep-15 01:58N 01°18' E 104°04'2 3.0
2017-Sep-15 01:27N 01°17' E 104°05'3 4.8
2017-Sep-15 00:52N 01°17' E 104°08'1 1.6
2017-Sep-15 00:30N 01°17' E 104°08'6 4.7
2017-Sep-14 23:09N 01°18' E 104°15'  

Dump ship's entire track history